sensor_id;sensor_type;location;lat;lon;timestamp;pressure;altitude;pressure_sealevel;temperature;humidity
36798;BME280;22748;8.426;99.512;2023-04-19T00:01:42;100541.13;;;32.09;59.64
36798;BME280;22748;8.426;99.512;2023-04-19T00:04:13;100547.00;;;32.06;59.98
36798;BME280;22748;8.426;99.512;2023-04-19T00:06:42;100552.53;;;32.00;59.78
36798;BME280;22748;8.426;99.512;2023-04-19T00:09:14;100557.53;;;31.96;59.89
36798;BME280;22748;8.426;99.512;2023-04-19T00:11:44;100559.19;;;31.97;59.93
36798;BME280;22748;8.426;99.512;2023-04-19T00:14:16;100558.34;;;31.96;60.14
36798;BME280;22748;8.426;99.512;2023-04-19T00:16:46;100566.53;;;31.90;60.46
36798;BME280;22748;8.426;99.512;2023-04-19T00:19:19;100567.84;;;31.87;60.41
36798;BME280;22748;8.426;99.512;2023-04-19T00:21:49;100564.69;;;31.90;60.67
36798;BME280;22748;8.426;99.512;2023-04-19T00:24:19;100570.75;;;31.86;60.67
36798;BME280;22748;8.426;99.512;2023-04-19T00:26:49;100576.75;;;31.88;61.14
36798;BME280;22748;8.426;99.512;2023-04-19T00:29:27;100580.91;;;31.90;60.99
36798;BME280;22748;8.426;99.512;2023-04-19T00:31:58;100586.75;;;31.87;61.33
36798;BME280;22748;8.426;99.512;2023-04-19T00:34:35;100581.72;;;31.91;60.97
36798;BME280;22748;8.426;99.512;2023-04-19T00:37:06;100593.72;;;31.95;61.10
36798;BME280;22748;8.426;99.512;2023-04-19T00:39:38;100589.53;;;31.99;61.15
36798;BME280;22748;8.426;99.512;2023-04-19T00:42:09;100591.69;;;31.90;61.34
36798;BME280;22748;8.426;99.512;2023-04-19T00:44:41;100603.75;;;31.88;61.01
36798;BME280;22748;8.426;99.512;2023-04-19T00:47:13;100596.84;;;31.92;61.07
36798;BME280;22748;8.426;99.512;2023-04-19T00:49:44;100612.63;;;31.95;61.10
36798;BME280;22748;8.426;99.512;2023-04-19T00:52:15;100614.06;;;31.97;61.23
36798;BME280;22748;8.426;99.512;2023-04-19T00:54:45;100616.94;;;31.96;61.07
36798;BME280;22748;8.426;99.512;2023-04-19T00:57:22;100622.97;;;31.98;61.38
36798;BME280;22748;8.426;99.512;2023-04-19T01:00:02;100619.25;;;31.99;61.39
36798;BME280;22748;8.426;99.512;2023-04-19T01:02:37;100627.34;;;31.99;61.24
36798;BME280;22748;8.426;99.512;2023-04-19T01:05:07;100625.69;;;31.98;61.13
36798;BME280;22748;8.426;99.512;2023-04-19T01:07:37;100625.75;;;31.91;61.35
36798;BME280;22748;8.426;99.512;2023-04-19T01:10:08;100627.41;;;31.92;61.34
36798;BME280;22748;8.426;99.512;2023-04-19T01:12:39;100621.16;;;31.92;61.14
36798;BME280;22748;8.426;99.512;2023-04-19T01:15:18;100625.69;;;31.98;61.34
36798;BME280;22748;8.426;99.512;2023-04-19T01:17:49;100620.19;;;32.05;60.96
36798;BME280;22748;8.426;99.512;2023-04-19T01:20:25;100622.19;;;32.09;60.93
36798;BME280;22748;8.426;99.512;2023-04-19T01:23:07;100623.94;;;32.04;61.21
36798;BME280;22748;8.426;99.512;2023-04-19T01:25:39;100626.13;;;31.95;61.30
36798;BME280;22748;8.426;99.512;2023-04-19T01:28:11;100622.28;;;32.03;61.01
36798;BME280;22748;8.426;99.512;2023-04-19T01:30:42;100623.84;;;32.10;61.30
36798;BME280;22748;8.426;99.512;2023-04-19T01:33:19;100638.88;;;32.18;61.24
36798;BME280;22748;8.426;99.512;2023-04-19T01:35:50;100636.06;;;32.25;61.21
36798;BME280;22748;8.426;99.512;2023-04-19T01:38:22;100628.13;;;32.30;60.77
36798;BME280;22748;8.426;99.512;2023-04-19T01:40:52;100634.81;;;32.27;61.18
36798;BME280;22748;8.426;99.512;2023-04-19T01:43:23;100632.94;;;32.28;61.18
36798;BME280;22748;8.426;99.512;2023-04-19T01:45:54;100641.75;;;32.35;60.71
36798;BME280;22748;8.426;99.512;2023-04-19T01:48:23;100638.56;;;32.38;60.85
36798;BME280;22748;8.426;99.512;2023-04-19T01:50:56;100638.22;;;32.46;60.41
36798;BME280;22748;8.426;99.512;2023-04-19T01:53:29;100640.22;;;32.51;60.11
36798;BME280;22748;8.426;99.512;2023-04-19T01:55:59;100643.56;;;32.53;59.86
36798;BME280;22748;8.426;99.512;2023-04-19T01:58:30;100647.75;;;32.49;60.01
36798;BME280;22748;8.426;99.512;2023-04-19T02:01:06;100644.81;;;32.50;59.67
36798;BME280;22748;8.426;99.512;2023-04-19T02:03:38;100642.59;;;32.47;59.63
36798;BME280;22748;8.426;99.512;2023-04-19T02:06:12;100642.59;;;32.47;59.64
36798;BME280;22748;8.426;99.512;2023-04-19T02:08:57;100637.78;;;32.49;59.68
36798;BME280;22748;8.426;99.512;2023-04-19T02:11:27;100640.94;;;32.46;59.69
36798;BME280;22748;8.426;99.512;2023-04-19T02:13:57;100635.03;;;32.37;59.94
36798;BME280;22748;8.426;99.512;2023-04-19T02:16:29;100637.31;;;32.41;60.16
36798;BME280;22748;8.426;99.512;2023-04-19T02:18:59;100645.31;;;32.47;59.67
36798;BME280;22748;8.426;99.512;2023-04-19T02:21:30;100639.34;;;32.57;59.42
36798;BME280;22748;8.426;99.512;2023-04-19T02:24:02;100634.28;;;32.61;59.38
36798;BME280;22748;8.426;99.512;2023-04-19T02:26:34;100635.47;;;32.65;59.46
36798;BME280;22748;8.426;99.512;2023-04-19T02:29:10;100626.66;;;32.69;59.33
36798;BME280;22748;8.426;99.512;2023-04-19T02:31:41;100624.28;;;32.73;59.32
36798;BME280;22748;8.426;99.512;2023-04-19T02:34:13;100628.75;;;32.79;59.01
36798;BME280;22748;8.426;99.512;2023-04-19T02:36:43;100625.72;;;32.75;58.86
36798;BME280;22748;8.426;99.512;2023-04-19T02:39:16;100623.94;;;32.81;58.60
36798;BME280;22748;8.426;99.512;2023-04-19T02:41:47;100623.47;;;32.84;58.69
36798;BME280;22748;8.426;99.512;2023-04-19T02:44:17;100624.88;;;32.87;58.50
36798;BME280;22748;8.426;99.512;2023-04-19T02:46:52;100620.66;;;32.91;58.60
36798;BME280;22748;8.426;99.512;2023-04-19T02:49:23;100622.88;;;32.94;58.70
36798;BME280;22748;8.426;99.512;2023-04-19T02:51:52;100618.28;;;32.94;58.76
36798;BME280;22748;8.426;99.512;2023-04-19T02:54:25;100620.53;;;32.97;58.37
36798;BME280;22748;8.426;99.512;2023-04-19T02:56:56;100609.94;;;32.96;57.97
36798;BME280;22748;8.426;99.512;2023-04-19T02:59:33;100617.00;;;32.97;58.06
36798;BME280;22748;8.426;99.512;2023-04-19T03:02:03;100602.75;;;33.02;58.17
36798;BME280;22748;8.426;99.512;2023-04-19T03:04:34;100595.22;;;33.04;58.21
36798;BME280;22748;8.426;99.512;2023-04-19T03:07:08;100598.75;;;33.04;58.26
36798;BME280;22748;8.426;99.512;2023-04-19T03:09:41;100598.06;;;33.09;57.87
36798;BME280;22748;8.426;99.512;2023-04-19T03:12:11;100594.41;;;33.15;57.07
36798;BME280;22748;8.426;99.512;2023-04-19T03:14:42;100591.22;;;33.18;57.32
36798;BME280;22748;8.426;99.512;2023-04-19T03:17:12;100587.56;;;33.24;57.50
36798;BME280;22748;8.426;99.512;2023-04-19T03:19:43;100587.63;;;33.29;57.17
36798;BME280;22748;8.426;99.512;2023-04-19T03:22:14;100589.31;;;33.30;57.55
36798;BME280;22748;8.426;99.512;2023-04-19T03:24:53;100577.97;;;33.33;57.41
36798;BME280;22748;8.426;99.512;2023-04-19T03:27:24;100575.41;;;33.38;57.50
36798;BME280;22748;8.426;99.512;2023-04-19T03:29:55;100575.41;;;33.38;57.50
36798;BME280;22748;8.426;99.512;2023-04-19T03:32:25;100569.72;;;33.40;57.50
36798;BME280;22748;8.426;99.512;2023-04-19T03:34:56;100574.31;;;33.39;56.83
36798;BME280;22748;8.426;99.512;2023-04-19T03:37:28;100568.91;;;33.39;56.39
36798;BME280;22748;8.426;99.512;2023-04-19T03:40:00;100566.19;;;33.39;56.50
36798;BME280;22748;8.426;99.512;2023-04-19T03:42:31;100567.84;;;33.40;55.79
36798;BME280;22748;8.426;99.512;2023-04-19T03:45:05;100558.66;;;33.42;55.11
36798;BME280;22748;8.426;99.512;2023-04-19T03:47:46;100552.91;;;33.38;55.54
36798;BME280;22748;8.426;99.512;2023-04-19T03:50:17;100555.94;;;33.42;55.83
36798;BME280;22748;8.426;99.512;2023-04-19T03:52:53;100546.88;;;33.48;56.11
36798;BME280;22748;8.426;99.512;2023-04-19T03:55:26;100548.59;;;33.54;56.08
36798;BME280;22748;8.426;99.512;2023-04-19T03:58:02;100547.88;;;33.58;55.36
36798;BME280;22748;8.426;99.512;2023-04-19T04:00:33;100541.19;;;33.61;54.89
36798;BME280;22748;8.426;99.512;2023-04-19T04:03:05;100548.00;;;33.64;54.91
36798;BME280;22748;8.426;99.512;2023-04-19T04:05:36;100542.34;;;33.65;54.56
36798;BME280;22748;8.426;99.512;2023-04-19T04:08:07;100548.34;;;33.67;54.13
36798;BME280;22748;8.426;99.512;2023-04-19T04:10:38;100539.72;;;33.70;54.71
36798;BME280;22748;8.426;99.512;2023-04-19T04:13:08;100536.59;;;33.78;53.56
36798;BME280;22748;8.426;99.512;2023-04-19T04:15:39;100531.38;;;33.89;53.18
36798;BME280;22748;8.426;99.512;2023-04-19T04:18:15;100530.63;;;33.93;53.61
36798;BME280;22748;8.426;99.512;2023-04-19T04:20:54;100527.91;;;33.93;53.56
36798;BME280;22748;8.426;99.512;2023-04-19T04:23:25;100517.09;;;33.93;52.66
36798;BME280;22748;8.426;99.512;2023-04-19T04:26:01;100514.03;;;33.90;51.68
36798;BME280;22748;8.426;99.512;2023-04-19T04:28:32;100511.97;;;33.97;51.39
36798;BME280;22748;8.426;99.512;2023-04-19T04:31:02;100501.31;;;34.07;50.81
36798;BME280;22748;8.426;99.512;2023-04-19T04:33:35;100494.56;;;34.10;51.55
36798;BME280;22748;8.426;99.512;2023-04-19T04:36:05;100497.88;;;34.12;52.18
36798;BME280;22748;8.426;99.512;2023-04-19T04:38:38;100492.78;;;34.15;51.68
36798;BME280;22748;8.426;99.512;2023-04-19T04:41:12;100487.94;;;34.17;52.14
36798;BME280;22748;8.426;99.512;2023-04-19T04:43:43;100479.31;;;34.20;51.60
36798;BME280;22748;8.426;99.512;2023-04-19T04:46:22;100475.03;;;34.25;51.52
36798;BME280;22748;8.426;99.512;2023-04-19T04:48:57;100469.13;;;34.28;51.39
36798;BME280;22748;8.426;99.512;2023-04-19T04:51:28;100464.81;;;34.32;51.09
36798;BME280;22748;8.426;99.512;2023-04-19T04:54:04;100463.81;;;34.38;50.43
36798;BME280;22748;8.426;99.512;2023-04-19T04:56:49;100461.94;;;34.38;50.41
36798;BME280;22748;8.426;99.512;2023-04-19T04:59:21;100451.97;;;34.44;50.08
36798;BME280;22748;8.426;99.512;2023-04-19T05:01:51;100452.03;;;34.49;50.18
36798;BME280;22748;8.426;99.512;2023-04-19T05:04:35;100448.50;;;34.49;49.96
36798;BME280;22748;8.426;99.512;2023-04-19T05:07:07;100443.91;;;34.49;50.58
36798;BME280;22748;8.426;99.512;2023-04-19T05:09:38;100442.28;;;34.48;50.85
36798;BME280;22748;8.426;99.512;2023-04-19T05:12:20;100429.28;;;34.50;51.00
36798;BME280;22748;8.426;99.512;2023-04-19T05:15:08;100426.63;;;34.55;51.00
36798;BME280;22748;8.426;99.512;2023-04-19T05:17:45;100420.72;;;34.58;50.43
36798;BME280;22748;8.426;99.512;2023-04-19T05:20:16;100417.72;;;34.60;50.58
36798;BME280;22748;8.426;99.512;2023-04-19T05:22:57;100413.16;;;34.60;50.18
36798;BME280;22748;8.426;99.512;2023-04-19T05:25:27;100409.72;;;34.65;49.99
36798;BME280;22748;8.426;99.512;2023-04-19T05:28:03;100401.84;;;34.69;49.52
36798;BME280;22748;8.426;99.512;2023-04-19T05:30:34;100400.28;;;34.73;49.42
36798;BME280;22748;8.426;99.512;2023-04-19T05:33:05;100394.38;;;34.76;50.28
36798;BME280;22748;8.426;99.512;2023-04-19T05:35:40;100389.50;;;34.78;48.61
36798;BME280;22748;8.426;99.512;2023-04-19T05:38:11;100380.84;;;34.81;48.88
36798;BME280;22748;8.426;99.512;2023-04-19T05:40:42;100368.66;;;34.83;48.86
36798;BME280;22748;8.426;99.512;2023-04-19T05:43:15;100359.75;;;34.88;49.11
36798;BME280;22748;8.426;99.512;2023-04-19T05:45:46;100352.97;;;34.91;48.57
36798;BME280;22748;8.426;99.512;2023-04-19T05:48:17;100350.09;;;34.97;47.59
36798;BME280;22748;8.426;99.512;2023-04-19T05:50:47;100357.69;;;35.00;48.16
36798;BME280;22748;8.426;99.512;2023-04-19T05:53:19;100342.81;;;35.08;47.27
36798;BME280;22748;8.426;99.512;2023-04-19T05:55:55;100337.41;;;35.08;47.17
36798;BME280;22748;8.426;99.512;2023-04-19T05:58:30;100326.84;;;35.12;46.66
36798;BME280;22748;8.426;99.512;2023-04-19T06:01:02;100331.28;;;35.18;46.33
36798;BME280;22748;8.426;99.512;2023-04-19T06:03:33;100318.78;;;35.17;46.21
36798;BME280;22748;8.426;99.512;2023-04-19T06:06:05;100314.47;;;35.21;46.50
36798;BME280;22748;8.426;99.512;2023-04-19T06:08:36;100314.47;;;35.21;46.46
36798;BME280;22748;8.426;99.512;2023-04-19T06:11:11;100315.00;;;35.18;46.28
36798;BME280;22748;8.426;99.512;2023-04-19T06:13:44;100311.72;;;35.16;45.91
36798;BME280;22748;8.426;99.512;2023-04-19T06:16:20;100297.63;;;35.19;45.34
36798;BME280;22748;8.426;99.512;2023-04-19T06:18:51;100295.47;;;35.21;46.13
36798;BME280;22748;8.426;99.512;2023-04-19T06:21:22;100288.53;;;35.08;44.38
36798;BME280;22748;8.426;99.512;2023-04-19T06:23:53;100275.63;;;35.15;45.44
36798;BME280;22748;8.426;99.512;2023-04-19T06:26:29;100277.81;;;35.18;44.51
36798;BME280;22748;8.426;99.512;2023-04-19T06:29:09;100269.72;;;35.23;44.53
36798;BME280;22748;8.426;99.512;2023-04-19T06:31:40;100260.78;;;35.28;44.75
36798;BME280;22748;8.426;99.512;2023-04-19T06:34:12;100251.53;;;35.29;44.61
36798;BME280;22748;8.426;99.512;2023-04-19T06:36:42;100246.94;;;35.30;45.12
36798;BME280;22748;8.426;99.512;2023-04-19T06:39:12;100233.66;;;35.33;45.03
36798;BME280;22748;8.426;99.512;2023-04-19T06:41:43;100227.97;;;35.35;44.97
36798;BME280;22748;8.426;99.512;2023-04-19T06:44:15;100226.38;;;35.39;45.20
36798;BME280;22748;8.426;99.512;2023-04-19T06:46:47;100215.22;;;35.40;44.91
36798;BME280;22748;8.426;99.512;2023-04-19T06:49:17;100222.56;;;35.45;44.94
36798;BME280;22748;8.426;99.512;2023-04-19T06:51:50;100213.09;;;35.48;44.98
36798;BME280;22748;8.426;99.512;2023-04-19T06:54:21;100206.59;;;35.49;45.25
36798;BME280;22748;8.426;99.512;2023-04-19T06:56:52;100200.09;;;35.50;45.11
36798;BME280;22748;8.426;99.512;2023-04-19T06:59:29;100192.75;;;35.50;44.88
36798;BME280;22748;8.426;99.512;2023-04-19T07:02:02;100187.59;;;35.54;44.19
36798;BME280;22748;8.426;99.512;2023-04-19T07:04:31;100176.72;;;35.54;44.69
36798;BME280;22748;8.426;99.512;2023-04-19T07:07:02;100175.66;;;35.55;43.79
36798;BME280;22748;8.426;99.512;2023-04-19T07:09:33;100164.25;;;35.58;43.91
36798;BME280;22748;8.426;99.512;2023-04-19T07:12:03;100162.16;;;35.65;44.39
36798;BME280;22748;8.426;99.512;2023-04-19T07:14:56;100163.00;;;35.76;43.87
36798;BME280;22748;8.426;99.512;2023-04-19T07:17:28;100162.75;;;35.82;43.87
36798;BME280;22748;8.426;99.512;2023-04-19T07:19:59;100155.66;;;35.81;43.71
36798;BME280;22748;8.426;99.512;2023-04-19T07:22:33;100151.31;;;35.86;43.43
36798;BME280;22748;8.426;99.512;2023-04-19T07:25:05;100146.69;;;35.86;43.59
36798;BME280;22748;8.426;99.512;2023-04-19T07:27:36;100141.28;;;35.86;43.76
36798;BME280;22748;8.426;99.512;2023-04-19T07:30:13;100134.47;;;35.83;43.72
36798;BME280;22748;8.426;99.512;2023-04-19T07:32:55;100147.81;;;35.85;43.51
36798;BME280;22748;8.426;99.512;2023-04-19T07:35:27;100131.50;;;35.90;43.61
36798;BME280;22748;8.426;99.512;2023-04-19T07:38:11;100115.47;;;35.94;43.16
36798;BME280;22748;8.426;99.512;2023-04-19T07:40:48;100114.41;;;36.00;42.77
36798;BME280;22748;8.426;99.512;2023-04-19T07:43:25;100108.97;;;36.05;42.82
36798;BME280;22748;8.426;99.512;2023-04-19T07:46:08;100104.59;;;36.04;43.05
36798;BME280;22748;8.426;99.512;2023-04-19T07:48:42;100099.72;;;36.06;42.81
36798;BME280;22748;8.426;99.512;2023-04-19T07:51:15;100096.72;;;36.08;42.69
36798;BME280;22748;8.426;99.512;2023-04-19T07:53:51;100092.66;;;36.10;42.68
36798;BME280;22748;8.426;99.512;2023-04-19T07:56:22;100082.34;;;36.12;42.47
36798;BME280;22748;8.426;99.512;2023-04-19T07:58:59;100074.47;;;36.11;42.65
36798;BME280;22748;8.426;99.512;2023-04-19T08:01:33;100071.75;;;36.16;42.62
36798;BME280;22748;8.426;99.512;2023-04-19T08:04:11;100064.16;;;36.18;42.63
36798;BME280;22748;8.426;99.512;2023-04-19T08:06:41;100062.78;;;36.20;42.46
36798;BME280;22748;8.426;99.512;2023-04-19T08:09:11;100061.69;;;36.21;42.59
36798;BME280;22748;8.426;99.512;2023-04-19T08:11:42;100058.44;;;36.19;42.40
36798;BME280;22748;8.426;99.512;2023-04-19T08:14:14;100051.91;;;36.20;42.07
36798;BME280;22748;8.426;99.512;2023-04-19T08:17:00;100050.81;;;36.21;41.61
36798;BME280;22748;8.426;99.512;2023-04-19T08:19:31;100046.47;;;36.25;41.21
36798;BME280;22748;8.426;99.512;2023-04-19T08:22:01;100040.50;;;36.29;41.63
36798;BME280;22748;8.426;99.512;2023-04-19T08:24:33;100044.56;;;36.31;41.50
36798;BME280;22748;8.426;99.512;2023-04-19T08:27:09;100032.88;;;36.36;41.53
36798;BME280;22748;8.426;99.512;2023-04-19T08:29:40;100029.59;;;36.39;41.43
36798;BME280;22748;8.426;99.512;2023-04-19T08:32:13;100013.81;;;36.36;41.97
36798;BME280;22748;8.426;99.512;2023-04-19T08:34:46;100011.09;;;36.36;41.78
36798;BME280;22748;8.426;99.512;2023-04-19T08:37:16;100013.81;;;36.36;41.37
36798;BME280;22748;8.426;99.512;2023-04-19T08:39:50;100006.75;;;36.40;41.27
36798;BME280;22748;8.426;99.512;2023-04-19T08:42:22;100010.00;;;36.42;41.09
36798;BME280;22748;8.426;99.512;2023-04-19T08:44:54;100001.28;;;36.45;41.60
36798;BME280;22748;8.426;99.512;2023-04-19T08:47:55;100002.66;;;36.42;41.80
36798;BME280;22748;8.426;99.512;2023-04-19T08:50:42;100009.75;;;36.43;41.20
36798;BME280;22748;8.426;99.512;2023-04-19T08:53:14;100017.06;;;36.48;41.01
36798;BME280;22748;8.426;99.512;2023-04-19T08:55:47;100002.94;;;36.46;41.06
36798;BME280;22748;8.426;99.512;2023-04-19T08:58:26;99999.13;;;36.47;40.96
36798;BME280;22748;8.426;99.512;2023-04-19T09:00:59;99986.06;;;36.49;41.23
36798;BME280;22748;8.426;99.512;2023-04-19T09:03:46;99979.81;;;36.49;40.93
36798;BME280;22748;8.426;99.512;2023-04-19T09:06:17;99980.06;;;36.52;41.28
36798;BME280;22748;8.426;99.512;2023-04-19T09:08:49;99965.94;;;36.50;41.85
36798;BME280;22748;8.426;99.512;2023-04-19T09:11:36;99961.56;;;36.49;41.42
36798;BME280;22748;8.426;99.512;2023-04-19T09:14:10;99961.03;;;36.47;41.11
36798;BME280;22748;8.426;99.512;2023-04-19T09:16:43;99953.41;;;36.49;40.43
36798;BME280;22748;8.426;99.512;2023-04-19T09:19:16;99955.31;;;36.54;40.08
36798;BME280;22748;8.426;99.512;2023-04-19T09:21:49;99956.94;;;36.55;39.93
36798;BME280;22748;8.426;99.512;2023-04-19T09:24:37;99941.44;;;36.55;40.70
36798;BME280;22748;8.426;99.512;2023-04-19T09:27:09;99935.72;;;36.57;40.00
36798;BME280;22748;8.426;99.512;2023-04-19T09:29:45;99927.25;;;36.58;40.22
36798;BME280;22748;8.426;99.512;2023-04-19T09:32:26;99926.19;;;36.59;40.51
36798;BME280;22748;8.426;99.512;2023-04-19T09:35:02;99929.97;;;36.58;40.44
36798;BME280;22748;8.426;99.512;2023-04-19T09:37:42;99917.50;;;36.57;40.62
36798;BME280;22748;8.426;99.512;2023-04-19T09:40:25;99929.75;;;36.55;39.46
36798;BME280;22748;8.426;99.512;2023-04-19T09:43:04;99938.72;;;36.55;40.09
36798;BME280;22748;8.426;99.512;2023-04-19T09:45:45;99941.69;;;36.59;40.08
36798;BME280;22748;8.426;99.512;2023-04-19T09:48:23;99933.28;;;36.60;39.70
36798;BME280;22748;8.426;99.512;2023-04-19T09:51:10;99929.47;;;36.61;39.83
36798;BME280;22748;8.426;99.512;2023-04-19T09:53:43;99932.72;;;36.63;40.01
36798;BME280;22748;8.426;99.512;2023-04-19T09:56:15;99934.34;;;36.64;40.43
36798;BME280;22748;8.426;99.512;2023-04-19T09:58:47;99934.06;;;36.66;39.73
36798;BME280;22748;8.426;99.512;2023-04-19T10:01:24;99936.00;;;36.65;39.47
36798;BME280;22748;8.426;99.512;2023-04-19T10:04:09;99939.25;;;36.68;39.84
36798;BME280;22748;8.426;99.512;2023-04-19T10:06:53;99942.25;;;36.66;39.81
36798;BME280;22748;8.426;99.512;2023-04-19T10:09:27;99944.97;;;36.66;39.85
36798;BME280;22748;8.426;99.512;2023-04-19T10:11:59;99942.50;;;36.64;39.49
36798;BME280;22748;8.426;99.512;2023-04-19T10:14:41;99945.78;;;36.61;39.40
36798;BME280;22748;8.426;99.512;2023-04-19T10:17:15;99942.81;;;36.63;40.14
36798;BME280;22748;8.426;99.512;2023-04-19T10:20:03;99939.25;;;36.62;39.95
36798;BME280;22748;8.426;99.512;2023-04-19T10:22:51;99937.38;;;36.63;39.73
36798;BME280;22748;8.426;99.512;2023-04-19T10:25:28;99944.69;;;36.68;39.91
36798;BME280;22748;8.426;99.512;2023-04-19T10:28:02;99939.22;;;36.73;39.83
36798;BME280;22748;8.426;99.512;2023-04-19T10:30:52;99946.56;;;36.72;39.96
36798;BME280;22748;8.426;99.512;2023-04-19T10:33:33;99950.63;;;36.75;40.42
36798;BME280;22748;8.426;99.512;2023-04-19T10:36:09;99956.09;;;36.70;40.64
36798;BME280;22748;8.426;99.512;2023-04-19T10:38:53;99963.72;;;36.68;40.49
36798;BME280;22748;8.426;99.512;2023-04-19T10:42:02;99985.75;;;36.66;40.52
36798;BME280;22748;8.426;99.512;2023-04-19T10:44:38;99982.25;;;36.65;40.78
36798;BME280;22748;8.426;99.512;2023-04-19T10:47:42;99981.69;;;36.63;40.91
36798;BME280;22748;8.426;99.512;2023-04-19T10:50:29;99974.06;;;36.65;40.68
36798;BME280;22748;8.426;99.512;2023-04-19T10:54:00;99980.59;;;36.70;40.67
36798;BME280;22748;8.426;99.512;2023-04-19T10:56:59;99988.22;;;36.68;40.42
36798;BME280;22748;8.426;99.512;2023-04-19T10:59:37;99994.72;;;36.72;40.60
36798;BME280;22748;8.426;99.512;2023-04-19T11:02:32;99981.66;;;36.69;41.01
36798;BME280;22748;8.426;99.512;2023-04-19T11:05:07;99984.38;;;36.69;41.03
36798;BME280;22748;8.426;99.512;2023-04-19T11:07:50;99978.69;;;36.65;41.21
36798;BME280;22748;8.426;99.512;2023-04-19T11:10:50;99977.63;;;36.61;41.14
36798;BME280;22748;8.426;99.512;2023-04-19T11:13:23;99983.06;;;36.61;41.41
36798;BME280;22748;8.426;99.512;2023-04-19T11:15:58;99981.69;;;36.63;41.49
36798;BME280;22748;8.426;99.512;2023-04-19T11:18:32;99984.97;;;36.65;41.53
36798;BME280;22748;8.426;99.512;2023-04-19T11:21:05;99992.59;;;36.63;41.87
36798;BME280;22748;8.426;99.512;2023-04-19T11:23:38;99993.91;;;36.56;41.90
36798;BME280;22748;8.426;99.512;2023-04-19T11:26:35;100002.66;;;36.53;41.97
36798;BME280;22748;8.426;99.512;2023-04-19T11:29:14;100011.03;;;36.56;42.04
36798;BME280;22748;8.426;99.512;2023-04-19T11:31:51;100019.78;;;36.53;42.08
36798;BME280;22748;8.426;99.512;2023-04-19T11:34:26;100031.22;;;36.50;42.27
36798;BME280;22748;8.426;99.512;2023-04-19T11:36:57;100035.56;;;36.46;42.56
36798;BME280;22748;8.426;99.512;2023-04-19T11:39:33;100039.38;;;36.45;42.70
36798;BME280;22748;8.426;99.512;2023-04-19T11:42:24;100042.66;;;36.37;42.67
36798;BME280;22748;8.426;99.512;2023-04-19T11:45:02;100045.38;;;36.32;43.22
36798;BME280;22748;8.426;99.512;2023-04-19T11:47:47;100048.09;;;36.27;43.34
36798;BME280;22748;8.426;99.512;2023-04-19T11:50:35;100055.47;;;36.26;43.75
36798;BME280;22748;8.426;99.512;2023-04-19T11:53:15;100052.75;;;36.26;43.75
36798;BME280;22748;8.426;99.512;2023-04-19T11:55:53;100064.41;;;36.27;43.87
36798;BME280;22748;8.426;99.512;2023-04-19T11:58:36;100067.13;;;36.27;43.66
36798;BME280;22748;8.426;99.512;2023-04-19T12:01:13;100074.75;;;36.30;43.83
36798;BME280;22748;8.426;99.512;2023-04-19T12:03:46;100070.94;;;36.31;43.89
36798;BME280;22748;8.426;99.512;2023-04-19T12:06:22;100078.56;;;36.29;43.96
36798;BME280;22748;8.426;99.512;2023-04-19T12:08:55;100086.19;;;36.27;44.10
36798;BME280;22748;8.426;99.512;2023-04-19T12:11:41;100091.59;;;36.27;44.20
36798;BME280;22748;8.426;99.512;2023-04-19T12:14:16;100089.44;;;36.29;44.23
36798;BME280;22748;8.426;99.512;2023-04-19T12:17:06;100098.66;;;36.28;44.55
36798;BME280;22748;8.426;99.512;2023-04-19T12:19:42;100113.63;;;36.25;44.45
36798;BME280;22748;8.426;99.512;2023-04-19T12:22:13;100119.63;;;36.22;44.59
36798;BME280;22748;8.426;99.512;2023-04-19T12:24:43;100123.69;;;36.19;44.61
36798;BME280;22748;8.426;99.512;2023-04-19T12:27:17;100130.75;;;36.15;44.92
36798;BME280;22748;8.426;99.512;2023-04-19T12:29:49;100137.78;;;36.11;44.89
36798;BME280;22748;8.426;99.512;2023-04-19T12:32:19;100135.34;;;36.10;44.68
36798;BME280;22748;8.426;99.512;2023-04-19T12:34:50;100147.00;;;36.10;44.66
36798;BME280;22748;8.426;99.512;2023-04-19T12:37:19;100143.75;;;36.08;45.22
36798;BME280;22748;8.426;99.512;2023-04-19T12:39:50;100160.06;;;36.08;44.90
36798;BME280;22748;8.426;99.512;2023-04-19T12:42:21;100166.59;;;36.07;44.81
36798;BME280;22748;8.426;99.512;2023-04-19T12:44:54;100175.25;;;36.04;44.86
36798;BME280;22748;8.426;99.512;2023-04-19T12:47:26;100181.81;;;36.03;45.26
36798;BME280;22748;8.426;99.512;2023-04-19T12:50:06;100182.91;;;36.02;44.96
36798;BME280;22748;8.426;99.512;2023-04-19T12:52:38;100193.78;;;36.02;45.14
36798;BME280;22748;8.426;99.512;2023-04-19T12:55:13;100200.28;;;36.01;45.10
36798;BME280;22748;8.426;99.512;2023-04-19T12:57:46;100212.75;;;35.97;45.37
36798;BME280;22748;8.426;99.512;2023-04-19T13:00:17;100218.75;;;35.94;45.23
36798;BME280;22748;8.426;99.512;2023-04-19T13:02:47;100225.53;;;35.96;45.30
36798;BME280;22748;8.426;99.512;2023-04-19T13:05:17;100239.69;;;35.93;45.64
36798;BME280;22748;8.426;99.512;2023-04-19T13:07:49;100244.28;;;35.93;45.39
36798;BME280;22748;8.426;99.512;2023-04-19T13:10:19;100253.28;;;35.93;45.39
36798;BME280;22748;8.426;99.512;2023-04-19T13:12:49;100257.84;;;35.88;45.36
36798;BME280;22748;8.426;99.512;2023-04-19T13:15:23;100257.56;;;35.84;45.21
36798;BME280;22748;8.426;99.512;2023-04-19T13:17:57;100260.56;;;35.82;45.37
36798;BME280;22748;8.426;99.512;2023-04-19T13:20:28;100273.03;;;35.83;45.40
36798;BME280;22748;8.426;99.512;2023-04-19T13:22:57;100274.97;;;35.83;45.38
36798;BME280;22748;8.426;99.512;2023-04-19T13:25:28;100279.59;;;35.82;45.79
36798;BME280;22748;8.426;99.512;2023-04-19T13:27:58;100279.59;;;35.82;45.48
36798;BME280;22748;8.426;99.512;2023-04-19T13:30:31;100289.06;;;35.80;45.62
36798;BME280;22748;8.426;99.512;2023-04-19T13:33:04;100288.25;;;35.79;45.51